| time (UTC) | temp F | wind direction | speed MPH | gust MPH | rain 1hr in | rain 24hr in | rain mn in | humidity % | barometer mb |
| 20260508205517 | 66 | 239 | 3.0 | 11.0 | 0.00 | 0.00 | 0.00 | 46 | 1010.2 |
| 20260508205020 | 66 | 248 | 4.0 | 10.0 | 0.00 | 0.00 | 0.00 | 45 | 1010.4 |
| 20260508204535 | 66 | 219 | 3.0 | 10.0 | 0.00 | 0.00 | 0.00 | 45 | 1010.4 |
| 20260508204019 | 66 | 198 | 3.0 | 12.0 | 0.00 | 0.00 | 0.00 | 46 | 1010.5 |
| 20260508203519 | 66 | 246 | 4.0 | 12.0 | 0.00 | 0.00 | 0.00 | 45 | 1010.6 |
| 20260508203043 | 66 | 223 | 3.0 | 13.0 | 0.00 | 0.00 | 0.00 | 46 | 1010.7 |
| 20260508202519 | 66 | 0 | 2.0 | 16.0 | 0.00 | 0.00 | 0.00 | 46 | 1010.8 |
| 20260508202019 | 66 | 214 | 4.0 | 16.0 | 0.00 | 0.00 | 0.00 | 45 | 1010.9 |
| 20260508201537 | 66 | 292 | 4.0 | 13.0 | 0.00 | 0.00 | 0.00 | 46 | 1010.9 |
| 20260508201019 | 66 | 209 | 4.0 | 11.0 | 0.00 | 0.00 | 0.00 | 46 | 1010.9 |
| 20260508200519 | 66 | 226 | 3.0 | 10.0 | 0.00 | 0.00 | 0.00 | 44 | 1010.9 |
| 20260508200038 | 66 | 260 | 2.0 | 11.0 | 0.00 | 0.00 | 0.00 | 45 | 1010.9 |
| 20260508195519 | 66 | 280 | 4.0 | 11.0 | 0.00 | 0.00 | 0.00 | 45 | 1011.1 |
| 20260508195018 | 66 | 212 | 5.0 | 11.0 | 0.00 | 0.00 | 0.00 | 44 | 1011.1 |
| 20260508194535 | 67 | 228 | 5.0 | 18.0 | 0.00 | 0.00 | 0.00 | 44 | 1011.0 |
| 20260508194018 | 67 | 238 | 6.0 | 18.0 | 0.00 | 0.00 | 0.00 | 43 | 1011.0 |
| 20260508193518 | 67 | 200 | 7.0 | 14.0 | 0.00 | 0.00 | 0.00 | 41 | 1011.0 |
| 20260508193037 | 68 | 215 | 4.0 | 11.0 | 0.00 | 0.00 | 0.00 | 43 | 1011.1 |
| 20260508192518 | 68 | 277 | 2.0 | 16.0 | 0.00 | 0.00 | 0.00 | 43 | 1011.1 |
| 20260508192022 | 69 | 201 | 3.0 | 18.0 | 0.00 | 0.00 | 0.00 | 43 | 1011.2 |
| 20260508191540 | 69 | 167 | 8.0 | 18.0 | 0.00 | 0.00 | 0.00 | 41 | 1011.3 |
| 20260508191019 | 69 | 259 | 4.0 | 18.0 | 0.00 | 0.00 | 0.00 | 45 | 1011.4 |
| 20260508190519 | 69 | 271 | 7.0 | 18.0 | 0.00 | 0.00 | 0.00 | 44 | 1011.4 |
| 20260508190044 | 69 | 159 | 8.0 | 20.0 | 0.00 | 0.00 | 0.00 | 42 | 1011.5 |
| 20260508185520 | 69 | 243 | 9.0 | 22.0 | 0.00 | 0.00 | 0.00 | 42 | 1011.5 |
| 20260508185019 | 69 | 210 | 8.0 | 22.0 | 0.00 | 0.00 | 0.00 | 43 | 1011.7 |
| 20260508184535 | 70 | 211 | 6.0 | 19.0 | 0.00 | 0.00 | 0.00 | 42 | 1011.7 |
| 20260508184018 | 69 | 238 | 6.0 | 19.0 | 0.00 | 0.00 | 0.00 | 44 | 1011.8 |
| 20260508183518 | 69 | 193 | 5.0 | 17.0 | 0.00 | 0.00 | 0.00 | 47 | 1011.8 |
| 20260508183038 | 68 | 221 | 7.0 | 19.0 | 0.00 | 0.00 | 0.00 | 47 | 1011.8 |
| 20260508182519 | 67 | 198 | 7.0 | 19.0 | 0.00 | 0.00 | 0.00 | 46 | 1011.9 |
| 20260508182018 | 67 | 187 | 6.0 | 15.0 | 0.00 | 0.00 | 0.00 | 46 | 1011.9 |
| 20260508181532 | 66 | 219 | 8.0 | 15.0 | 0.00 | 0.00 | 0.00 | 47 | 1012.1 |
| 20260508181022 | 66 | 258 | 6.0 | 16.0 | 0.00 | 0.00 | 0.00 | 47 | 1012.1 |
| 20260508180519 | 66 | 221 | 4.0 | 16.0 | 0.00 | 0.00 | 0.00 | 49 | 1012.3 |
| 20260508180035 | 66 | 250 | 5.0 | 16.0 | 0.00 | 0.00 | 0.00 | 49 | 1012.5 |
| 20260508175523 | 65 | 164 | 4.0 | 15.0 | 0.00 | 0.00 | 0.00 | 49 | 1012.5 |
| 20260508175018 | 65 | 190 | 6.0 | 18.0 | 0.00 | 0.00 | 0.00 | 48 | 1012.6 |
| 20260508174555 | 65 | 142 | 6.0 | 18.0 | 0.00 | 0.00 | 0.00 | 48 | 1012.7 |
| 20260508174022 | 65 | 221 | 7.0 | 17.0 | 0.00 | 0.00 | 0.00 | 48 | 1012.5 |
| 20260508173519 | 65 | 212 | 4.0 | 13.0 | 0.00 | 0.00 | 0.00 | 48 | 1012.7 |
| 20260508173035 | 65 | 257 | 6.0 | 13.0 | 0.00 | 0.00 | 0.00 | 47 | 1012.8 |
| 20260508172519 | 65 | 255 | 5.0 | 13.0 | 0.00 | 0.00 | 0.00 | 47 | 1013.1 |
| 20260508172019 | 66 | 196 | 5.0 | 13.0 | 0.00 | 0.00 | 0.00 | 47 | 1013.1 |
| 20260508171536 | 66 | 200 | 4.0 | 17.0 | 0.00 | 0.00 | 0.00 | 45 | 1013.1 |
| 20260508171018 | 67 | 253 | 9.0 | 17.0 | 0.00 | 0.00 | 0.00 | 46 | 1013.2 |
| 20260508170518 | 67 | 281 | 6.0 | 17.0 | 0.00 | 0.00 | 0.00 | 46 | 1013.2 |
| 20260508170037 | 67 | 9 | 4.0 | 17.0 | 0.00 | 0.00 | 0.00 | 48 | 1013.2 |
| 20260508165519 | 67 | 266 | 7.0 | 17.0 | 0.00 | 0.00 | 0.00 | 46 | 1013.4 |
| 20260508165018 | 67 | 193 | 8.0 | 19.0 | 0.00 | 0.00 | 0.00 | 46 | 1013.5 |
| 20260508164541 | 67 | 219 | 5.0 | 19.0 | 0.00 | 0.00 | 0.00 | 50 | 1013.6 |
| 20260508164019 | 67 | 271 | 7.0 | 19.0 | 0.00 | 0.00 | 0.00 | 50 | 1013.6 |
| 20260508163519 | 66 | 225 | 6.0 | 17.0 | 0.00 | 0.00 | 0.00 | 50 | 1013.7 |
| 20260508163105 | 66 | 238 | 4.0 | 16.0 | 0.00 | 0.00 | 0.00 | 50 | 1013.7 |
| 20260508162519 | 66 | 229 | 4.0 | 21.0 | 0.00 | 0.00 | 0.00 | 50 | 1013.8 |
| 20260508162019 | 66 | 267 | 10.0 | 21.0 | 0.00 | 0.00 | 0.00 | 49 | 1013.9 |
| 20260508161537 | 66 | 195 | 8.0 | 20.0 | 0.00 | 0.00 | 0.00 | 49 | 1013.8 |
| 20260508161019 | 65 | 200 | 7.0 | 16.0 | 0.00 | 0.00 | 0.00 | 50 | 1013.9 |
| 20260508160523 | 65 | 101 | 7.0 | 16.0 | 0.00 | 0.00 | 0.00 | 50 | 1014.1 |
| 20260508160036 | 65 | 201 | 9.0 | 17.0 | 0.00 | 0.00 | 0.00 | 50 | 1014.1 |
| 20260508155518 | 64 | 250 | 8.0 | 17.0 | 0.00 | 0.00 | 0.00 | 50 | 1014.4 |
| 20260508155018 | 64 | 180 | 7.0 | 18.0 | 0.00 | 0.00 | 0.00 | 52 | 1014.2 |
| 20260508154535 | 64 | 169 | 6.0 | 18.0 | 0.00 | 0.00 | 0.00 | 52 | 1014.3 |
| 20260508154018 | 63 | 243 | 6.0 | 17.0 | 0.00 | 0.00 | 0.00 | 52 | 1014.4 |
| 20260508153519 | 63 | 207 | 8.0 | 17.0 | 0.00 | 0.00 | 0.00 | 52 | 1014.4 |
| 20260508153035 | 63 | 241 | 5.0 | 20.0 | 0.00 | 0.00 | 0.00 | 54 | 1014.4 |
| 20260508152520 | 63 | 210 | 6.0 | 20.0 | 0.00 | 0.00 | 0.00 | 51 | 1014.5 |
| 20260508152019 | 63 | 282 | 6.0 | 20.0 | 0.00 | 0.00 | 0.00 | 51 | 1014.6 |
| 20260508151540 | 63 | 215 | 8.0 | 20.0 | 0.00 | 0.00 | 0.00 | 53 | 1014.4 |
| 20260508151025 | 62 | 9 | 6.0 | 18.0 | 0.00 | 0.00 | 0.00 | 54 | 1014.6 |
| 20260508150522 | 62 | 239 | 7.0 | 18.0 | 0.00 | 0.00 | 0.00 | 52 | 1014.5 |
| 20260508150037 | 62 | 209 | 6.0 | 17.0 | 0.00 | 0.00 | 0.00 | 52 | 1014.5 |
| 20260508145520 | 62 | 221 | 7.0 | 15.0 | 0.00 | 0.00 | 0.00 | 52 | 1014.5 |
| 20260508145017 | 62 | 239 | 6.0 | 14.0 | 0.00 | 0.00 | 0.00 | 53 | 1014.6 |
| 20260508144538 | 61 | 219 | 3.0 | 12.0 | 0.00 | 0.00 | 0.00 | 58 | 1014.6 |
| 20260508144020 | 60 | 93 | 5.0 | 12.0 | 0.00 | 0.00 | 0.00 | 54 | 1014.7 |
| 20260508143519 | 60 | 210 | 5.0 | 16.0 | 0.00 | 0.00 | 0.00 | 54 | 1014.8 |
| 20260508143037 | 60 | 236 | 5.0 | 16.0 | 0.00 | 0.00 | 0.00 | 54 | 1014.9 |
| 20260508142518 | 59 | 219 | 5.0 | 14.0 | 0.00 | 0.00 | 0.00 | 54 | 1014.9 |
| 20260508142019 | 59 | 281 | 4.0 | 14.0 | 0.00 | 0.00 | 0.00 | 54 | 1014.9 |
| 20260508141538 | 59 | 254 | 3.0 | 14.0 | 0.00 | 0.00 | 0.00 | 54 | 1015.1 |
| 20260508141019 | 59 | 266 | 4.0 | 16.0 | 0.00 | 0.00 | 0.00 | 54 | 1015.0 |
| 20260508140519 | 59 | 133 | 5.0 | 16.0 | 0.00 | 0.00 | 0.00 | 55 | 1015.0 |
| 20260508140037 | 59 | 253 | 7.0 | 14.0 | 0.00 | 0.00 | 0.00 | 53 | 1014.9 |
| 20260508135519 | 58 | 280 | 5.0 | 17.0 | 0.00 | 0.00 | 0.00 | 54 | 1015.0 |
| 20260508135018 | 57 | 189 | 4.0 | 17.0 | 0.00 | 0.00 | 0.00 | 54 | 1015.0 |
| 20260508134539 | 57 | 241 | 8.0 | 16.0 | 0.00 | 0.00 | 0.00 | 55 | 1015.0 |
| 20260508134018 | 56 | 238 | 8.0 | 17.0 | 0.00 | 0.00 | 0.00 | 56 | 1015.0 |
| 20260508133523 | 56 | 219 | 7.0 | 17.0 | 0.00 | 0.00 | 0.00 | 59 | 1015.0 |
| 20260508133044 | 55 | 221 | 4.0 | 11.0 | 0.00 | 0.00 | 0.00 | 59 | 1015.0 |
| 20260508132518 | 55 | 198 | 2.0 | 12.0 | 0.00 | 0.00 | 0.00 | 61 | 1015.1 |
| 20260508132020 | 55 | 259 | 5.0 | 12.0 | 0.00 | 0.00 | 0.00 | 61 | 1015.0 |
| 20260508131532 | 54 | 196 | 5.0 | 11.0 | 0.00 | 0.00 | 0.00 | 61 | 1014.9 |
| 20260508131019 | 54 | 221 | 4.0 | 12.0 | 0.00 | 0.00 | 0.00 | 61 | 1015.0 |
| 20260508130520 | 54 | 190 | 5.0 | 12.0 | 0.00 | 0.00 | 0.00 | 62 | 1014.9 |
| 20260508130051 | 53 | 208 | 3.0 | 11.0 | 0.00 | 0.00 | 0.00 | 65 | 1014.9 |
| 20260508125519 | 53 | 203 | 4.0 | 10.0 | 0.00 | 0.00 | 0.00 | 66 | 1015.0 |
| 20260508125019 | 52 | 169 | 5.0 | 10.0 | 0.00 | 0.00 | 0.00 | 67 | 1015.0 |
| 20260508124536 | 52 | 234 | 4.0 | 9.0 | 0.00 | 0.00 | 0.00 | 68 | 1015.0 |
| 20260508124019 | 51 | 250 | 3.0 | 12.0 | 0.00 | 0.00 | 0.00 | 67 | 1015.0 |
| 20260508123519 | 51 | 164 | 4.0 | 12.0 | 0.00 | 0.00 | 0.00 | 69 | 1015.0 |
| 20260508123038 | 50 | 158 | 4.0 | 9.0 | 0.00 | 0.00 | 0.00 | 72 | 1014.9 |
| 20260508122518 | 49 | 187 | 3.0 | 7.0 | 0.00 | 0.00 | 0.00 | 73 | 1015.0 |
| 20260508122018 | 49 | 178 | 3.0 | 7.0 | 0.00 | 0.00 | 0.00 | 74 | 1015.0 |
| 20260508121536 | 48 | 142 | 3.0 | 7.0 | 0.00 | 0.00 | 0.00 | 74 | 1015.0 |
| 20260508121019 | 48 | 178 | 3.0 | 7.0 | 0.00 | 0.00 | 0.00 | 73 | 1015.0 |
| 20260508120519 | 48 | 165 | 3.0 | 6.0 | 0.00 | 0.00 | 0.00 | 73 | 1015.0 |
| 20260508120042 | 48 | 232 | 3.0 | 7.0 | 0.00 | 0.00 | 0.00 | 73 | 1014.9 |
| 20260508115519 | 48 | 196 | 3.0 | 9.0 | 0.00 | 0.00 | 0.00 | 73 | 1014.9 |
| 20260508115018 | 48 | 208 | 3.0 | 9.0 | 0.00 | 0.00 | 0.00 | 73 | 1014.7 |
| 20260508114537 | 47 | 189 | 3.0 | 8.0 | 0.00 | 0.00 | 0.00 | 73 | 1014.7 |
| 20260508114023 | 47 | 182 | 4.0 | 8.0 | 0.00 | 0.00 | 0.00 | 73 | 1014.6 |
| 20260508113545 | 47 | 182 | 4.0 | 7.0 | 0.00 | 0.00 | 0.00 | 73 | 1014.5 |
| 20260508113044 | 47 | 221 | 3.0 | 6.0 | 0.00 | 0.00 | 0.00 | 73 | 1014.7 |
| 20260508112518 | 47 | 178 | 3.0 | 7.0 | 0.00 | 0.00 | 0.00 | 72 | 1014.6 |
| 20260508112019 | 47 | 178 | 3.0 | 7.0 | 0.00 | 0.00 | 0.00 | 72 | 1014.6 |
| 20260508111536 | 47 | 216 | 3.0 | 7.0 | 0.00 | 0.00 | 0.00 | 71 | 1014.6 |
| 20260508111019 | 47 | 172 | 3.0 | 8.0 | 0.00 | 0.00 | 0.00 | 71 | 1014.5 |
| 20260508110519 | 47 | 189 | 4.0 | 8.0 | 0.00 | 0.00 | 0.00 | 71 | 1014.5 |
| 20260508110045 | 47 | 219 | 4.0 | 9.0 | 0.00 | 0.00 | 0.00 | 71 | 1014.4 |
| 20260508105519 | 47 | 158 | 4.0 | 9.0 | 0.00 | 0.00 | 0.00 | 71 | 1014.3 |
| 20260508105019 | 47 | 205 | 5.0 | 9.0 | 0.00 | 0.00 | 0.00 | 71 | 1014.3 |
| 20260508104536 | 47 | 187 | 4.0 | 9.0 | 0.00 | 0.00 | 0.00 | 71 | 1014.2 |
| 20260508104018 | 47 | 178 | 4.0 | 9.0 | 0.00 | 0.00 | 0.00 | 71 | 1014.3 |
| 20260508103519 | 47 | 213 | 4.0 | 9.0 | 0.00 | 0.00 | 0.00 | 72 | 1014.4 |
| 20260508103038 | 47 | 153 | 4.0 | 9.0 | 0.00 | 0.00 | 0.00 | 72 | 1014.3 |
| 20260508102518 | 46 | 175 | 3.0 | 9.0 | 0.00 | 0.00 | 0.00 | 73 | 1014.4 |
| 20260508102019 | 46 | 221 | 3.0 | 9.0 | 0.00 | 0.00 | 0.00 | 73 | 1014.4 |
| 20260508101548 | 46 | 191 | 3.0 | 9.0 | 0.00 | 0.00 | 0.00 | 73 | 1014.5 |
| 20260508101019 | 46 | 175 | 3.0 | 7.0 | 0.00 | 0.00 | 0.00 | 74 | 1014.4 |
| 20260508100519 | 45 | 193 | 3.0 | 7.0 | 0.00 | 0.00 | 0.00 | 74 | 1014.4 |
| 20260508100039 | 45 | 193 | 3.0 | 8.0 | 0.00 | 0.00 | 0.00 | 75 | 1014.4 |
| 20260508095519 | 45 | 200 | 3.0 | 8.0 | 0.00 | 0.00 | 0.00 | 75 | 1014.5 |
| 20260508095019 | 45 | 184 | 3.0 | 9.0 | 0.00 | 0.00 | 0.00 | 76 | 1014.5 |
| 20260508094549 | 44 | 189 | 3.0 | 9.0 | 0.00 | 0.00 | 0.00 | 76 | 1014.5 |
| 20260508094018 | 44 | 155 | 3.0 | 6.0 | 0.00 | 0.00 | 0.00 | 76 | 1014.6 |
| 20260508093519 | 44 | 183 | 3.0 | 5.0 | 0.00 | 0.00 | 0.00 | 76 | 1014.6 |
| 20260508093051 | 44 | 193 | 3.0 | 5.0 | 0.00 | 0.00 | 0.00 | 77 | 1014.6 |
| 20260508092518 | 44 | 205 | 2.0 | 5.0 | 0.00 | 0.00 | 0.00 | 77 | 1014.7 |
| 20260508092020 | 44 | 191 | 1.0 | 5.0 | 0.00 | 0.00 | 0.00 | 77 | 1014.6 |
| 20260508091540 | 44 | 198 | 2.0 | 5.0 | 0.00 | 0.00 | 0.00 | 77 | 1014.6 |
| 20260508091019 | 44 | 146 | 2.0 | 5.0 | 0.00 | 0.00 | 0.00 | 78 | 1014.6 |
| 20260508090519 | 44 | 185 | 2.0 | 5.0 | 0.00 | 0.00 | 0.00 | 78 | 1014.5 |
| 20260508090053 | 43 | 146 | 1.0 | 5.0 | 0.00 | 0.00 | 0.00 | 79 | 1014.7 |
| 20260508085518 | 43 | 239 | 1.0 | 5.0 | 0.00 | 0.00 | 0.00 | 78 | 1014.6 |
| 20260508085018 | 43 | 146 | 1.0 | 5.0 | 0.00 | 0.00 | 0.00 | 78 | 1014.4 |
| 20260508084536 | 43 | 167 | 2.0 | 5.0 | 0.00 | 0.00 | 0.00 | 77 | 1014.5 |
| 20260508084018 | 43 | 158 | 2.0 | 5.0 | 0.00 | 0.00 | 0.00 | 76 | 1014.4 |
| 20260508083519 | 43 | 165 | 2.0 | 5.0 | 0.00 | 0.00 | 0.00 | 75 | 1014.6 |
| 20260508083036 | 43 | 171 | 1.0 | 4.0 | 0.00 | 0.00 | 0.00 | 73 | 1014.6 |
| 20260508082518 | 44 | 178 | 1.0 | 3.0 | 0.00 | 0.00 | 0.00 | 73 | 1014.5 |
| 20260508082019 | 44 | 146 | 1.0 | 4.0 | 0.00 | 0.00 | 0.00 | 72 | 1014.5 |
| 20260508081538 | 44 | 178 | 1.0 | 4.0 | 0.00 | 0.00 | 0.00 | 72 | 1014.4 |
| 20260508081019 | 44 | 193 | 2.0 | 5.0 | 0.00 | 0.00 | 0.00 | 72 | 1014.3 |
| 20260508080519 | 45 | 169 | 2.0 | 5.0 | 0.00 | 0.00 | 0.00 | 71 | 1014.3 |
| 20260508080040 | 45 | 178 | 3.0 | 6.0 | 0.00 | 0.00 | 0.00 | 71 | 1014.3 |
| 20260508075519 | 45 | 186 | 2.0 | 6.0 | 0.00 | 0.00 | 0.00 | 70 | 1014.3 |
| 20260508075023 | 45 | 186 | 3.0 | 5.0 | 0.00 | 0.00 | 0.00 | 69 | 1014.4 |
| 20260508074540 | 46 | 195 | 2.0 | 5.0 | 0.00 | 0.00 | 0.00 | 69 | 1014.3 |
| 20260508074018 | 46 | 201 | 2.0 | 5.0 | 0.00 | 0.00 | 0.00 | 68 | 1014.3 |
| 20260508073519 | 46 | 178 | 2.0 | 5.0 | 0.00 | 0.00 | 0.00 | 68 | 1014.2 |
| 20260508073036 | 46 | 203 | 3.0 | 5.0 | 0.00 | 0.00 | 0.00 | 68 | 1014.2 |
| 20260508072519 | 46 | 172 | 2.0 | 6.0 | 0.00 | 0.00 | 0.00 | 68 | 1014.3 |
| 20260508072019 | 46 | 193 | 2.0 | 6.0 | 0.00 | 0.00 | 0.00 | 67 | 1014.4 |
| 20260508071537 | 46 | 178 | 2.0 | 6.0 | 0.00 | 0.00 | 0.00 | 67 | 1014.4 |
| 20260508071019 | 46 | 232 | 2.0 | 6.0 | 0.00 | 0.00 | 0.00 | 67 | 1014.5 |
| 20260508070519 | 47 | 196 | 3.0 | 6.0 | 0.00 | 0.00 | 0.00 | 67 | 1014.4 |
| 20260508070039 | 47 | 225 | 3.0 | 6.0 | 0.00 | 0.00 | 0.00 | 66 | 1014.5 |
| 20260508065519 | 47 | 205 | 3.0 | 7.0 | 0.00 | 0.00 | 0.00 | 66 | 1014.5 |
| 20260508065018 | 47 | 171 | 3.0 | 7.0 | 0.00 | 0.00 | 0.00 | 66 | 1014.5 |
| 20260508064536 | 47 | 178 | 2.0 | 7.0 | 0.00 | 0.00 | 0.00 | 66 | 1014.7 |
| 20260508064019 | 47 | 184 | 4.0 | 7.0 | 0.00 | 0.00 | 0.00 | 67 | 1014.8 |
| 20260508063521 | 47 | 221 | 3.0 | 9.0 | 0.00 | 0.00 | 0.00 | 67 | 1014.9 |
| 20260508063036 | 47 | 213 | 4.0 | 9.0 | 0.00 | 0.00 | 0.00 | 67 | 1014.9 |
| 20260508062518 | 46 | 261 | 3.0 | 6.0 | 0.00 | 0.00 | 0.00 | 67 | 1015.0 |
| 20260508062019 | 46 | 217 | 3.0 | 7.0 | 0.00 | 0.00 | 0.00 | 67 | 1014.9 |
| 20260508061536 | 46 | 178 | 3.0 | 7.0 | 0.00 | 0.00 | 0.00 | 67 | 1015.0 |
| 20260508061018 | 46 | 186 | 3.0 | 6.0 | 0.00 | 0.00 | 0.00 | 67 | 1015.1 |
| 20260508060522 | 47 | 190 | 3.0 | 6.0 | 0.00 | 0.00 | 0.00 | 66 | 1014.9 |
| 20260508060042 | 47 | 219 | 2.0 | 7.0 | 0.00 | 0.00 | 0.00 | 66 | 1014.9 |
| 20260508055519 | 47 | 193 | 3.0 | 7.0 | 0.00 | 0.00 | 0.00 | 65 | 1014.9 |
| 20260508055023 | 47 | 205 | 2.0 | 5.0 | 0.00 | 0.00 | 0.00 | 65 | 1015.0 |
| 20260508054544 | 47 | 187 | 1.0 | 5.0 | 0.00 | 0.00 | 0.00 | 65 | 1015.1 |
| 20260508054020 | 47 | 200 | 1.0 | 5.0 | 0.00 | 0.00 | 0.00 | 64 | 1015.0 |
| 20260508053518 | 48 | 205 | 1.0 | 5.0 | 0.00 | 0.00 | 0.00 | 64 | 1015.2 |
| 20260508053037 | 48 | 165 | 1.0 | 6.0 | 0.00 | 0.00 | 0.00 | 64 | 1015.1 |
| 20260508052517 | 48 | 219 | 1.0 | 6.0 | 0.00 | 0.00 | 0.00 | 63 | 1015.1 |
| 20260508052018 | 48 | 0 | 2.0 | 6.0 | 0.00 | 0.00 | 0.00 | 63 | 1015.0 |
| 20260508051536 | 48 | 195 | 2.0 | 7.0 | 0.00 | 0.00 | 0.00 | 63 | 1015.0 |
| 20260508051022 | 48 | 190 | 2.0 | 7.0 | 0.00 | 0.00 | 0.00 | 63 | 1015.0 |
| 20260508050519 | 48 | 51 | 2.0 | 6.0 | 0.00 | 0.00 | 0.00 | 63 | 1015.0 |
| 20260508050041 | 48 | 196 | 2.0 | 6.0 | 0.00 | 0.00 | 0.00 | 63 | 1015.0 |
| 20260508045519 | 48 | 188 | 2.0 | 6.0 | 0.00 | 0.00 | 0.00 | 64 | 1015.0 |
| 20260508045023 | 47 | 169 | 3.0 | 8.0 | 0.00 | 0.00 | 0.00 | 64 | 1015.1 |
| 20260508044546 | 47 | 196 | 3.0 | 8.0 | 0.00 | 0.00 | 0.00 | 65 | 1015.0 |
| 20260508044021 | 47 | 211 | 3.0 | 6.0 | 0.00 | 0.00 | 0.00 | 65 | 1015.0 |
| 20260508043522 | 47 | 194 | 3.0 | 7.0 | 0.00 | 0.00 | 0.00 | 66 | 1014.9 |
| 20260508043037 | 47 | 165 | 3.0 | 7.0 | 0.00 | 0.00 | 0.00 | 66 | 1014.9 |
| 20260508042522 | 46 | 230 | 2.0 | 7.0 | 0.00 | 0.00 | 0.00 | 66 | 1014.9 |
| 20260508042022 | 46 | 164 | 3.0 | 7.0 | 0.00 | 0.00 | 0.00 | 67 | 1015.0 |
| 20260508041547 | 46 | 165 | 3.0 | 7.0 | 0.00 | 0.00 | 0.00 | 67 | 1015.0 |
| 20260508041021 | 46 | 178 | 3.0 | 7.0 | 0.00 | 0.00 | 0.00 | 67 | 1015.0 |
| 20260508040522 | 46 | 189 | 2.0 | 6.0 | 0.00 | 0.00 | 0.00 | 68 | 1014.8 |
| 20260508040045 | 46 | 158 | 3.0 | 6.0 | 0.00 | 0.00 | 0.00 | 68 | 1014.8 |
| 20260508035519 | 46 | 194 | 2.0 | 7.0 | 0.00 | 0.00 | 0.00 | 69 | 1014.8 |
| 20260508035021 | 46 | 178 | 3.0 | 7.0 | 0.00 | 0.00 | 0.00 | 70 | 1014.8 |
| 20260508034540 | 46 | 219 | 3.0 | 7.0 | 0.00 | 0.00 | 0.00 | 70 | 1014.8 |
| 20260508034019 | 46 | 209 | 3.0 | 7.0 | 0.00 | 0.00 | 0.00 | 71 | 1014.9 |
| 20260508033518 | 46 | 205 | 2.0 | 5.0 | 0.00 | 0.00 | 0.00 | 70 | 1014.9 |
| 20260508033039 | 46 | 178 | 2.0 | 6.0 | 0.00 | 0.00 | 0.00 | 70 | 1014.7 |
| 20260508032522 | 46 | 198 | 2.0 | 6.0 | 0.00 | 0.00 | 0.00 | 70 | 1014.9 |
| 20260508032018 | 46 | 196 | 2.0 | 5.0 | 0.00 | 0.00 | 0.00 | 70 | 1014.9 |
| 20260508031536 | 46 | 165 | 2.0 | 5.0 | 0.00 | 0.00 | 0.00 | 70 | 1014.9 |
| 20260508031019 | 46 | 195 | 2.0 | 5.0 | 0.00 | 0.00 | 0.00 | 70 | 1014.9 |
| 20260508030519 | 45 | 188 | 2.0 | 5.0 | 0.00 | 0.00 | 0.00 | 70 | 1014.8 |
| 20260508030039 | 45 | 172 | 2.0 | 7.0 | 0.00 | 0.00 | 0.00 | 71 | 1014.7 |
| 20260508025519 | 45 | 169 | 2.0 | 7.0 | 0.00 | 0.00 | 0.00 | 72 | 1014.5 |
| 20260508025019 | 45 | 157 | 3.0 | 7.0 | 0.00 | 0.00 | 0.00 | 74 | 1014.6 |
| 20260508024540 | 45 | 201 | 3.0 | 6.0 | 0.00 | 0.00 | 0.00 | 75 | 1014.7 |
| 20260508024019 | 45 | 165 | 3.0 | 5.0 | 0.00 | 0.00 | 0.00 | 75 | 1014.7 |
| 20260508023519 | 45 | 187 | 2.0 | 5.0 | 0.00 | 0.00 | 0.00 | 75 | 1014.7 |
| 20260508023042 | 45 | 188 | 1.0 | 5.0 | 0.00 | 0.00 | 0.00 | 75 | 1014.9 |
| 20260508022519 | 45 | 209 | 2.0 | 5.0 | 0.00 | 0.00 | 0.00 | 75 | 1014.7 |
| 20260508022019 | 45 | 175 | 2.0 | 5.0 | 0.00 | 0.00 | 0.00 | 75 | 1014.6 |
| 20260508021537 | 46 | 162 | 2.0 | 5.0 | 0.00 | 0.00 | 0.00 | 75 | 1014.6 |
| 20260508021018 | 46 | 153 | 2.0 | 4.0 | 0.00 | 0.00 | 0.00 | 74 | 1014.6 |
| 20260508020521 | 46 | 171 | 1.0 | 3.0 | 0.00 | 0.00 | 0.00 | 73 | 1014.7 |
| 20260508020035 | 46 | 158 | 1.0 | 3.0 | 0.00 | 0.00 | 0.00 | 73 | 1014.7 |
| 20260508015518 | 47 | 0 | 0.0 | 4.0 | 0.00 | 0.00 | 0.00 | 74 | 1014.7 |
| 20260508015018 | 47 | 169 | 1.0 | 4.0 | 0.00 | 0.00 | 0.00 | 72 | 1014.5 |
| 20260508014536 | 47 | 149 | 1.0 | 4.0 | 0.00 | 0.00 | 0.00 | 70 | 1014.6 |
| 20260508014020 | 47 | 178 | 1.0 | 3.0 | 0.00 | 0.00 | 0.00 | 69 | 1014.7 |
| 20260508013519 | 48 | 178 | 1.0 | 3.0 | 0.00 | 0.00 | 0.00 | 68 | 1014.6 |
| 20260508013036 | 48 | 178 | 1.0 | 2.0 | 0.00 | 0.00 | 0.00 | 66 | 1014.6 |
| 20260508012519 | 49 | 169 | 1.0 | 4.0 | 0.00 | 0.00 | 0.00 | 65 | 1014.6 |
| 20260508012022 | 49 | 178 | 1.0 | 4.0 | 0.00 | 0.00 | 0.00 | 63 | 1014.6 |
| 20260508011537 | 50 | 169 | 1.0 | 2.0 | 0.00 | 0.00 | 0.00 | 62 | 1014.5 |
| 20260508011019 | 50 | 137 | 0.0 | 1.0 | 0.00 | 0.00 | 0.00 | 61 | 1014.6 |
| 20260508010519 | 50 | 0 | 0.0 | 2.0 | 0.00 | 0.00 | 0.00 | 61 | 1014.5 |
| 20260508010041 | 51 | 0 | 0.0 | 2.0 | 0.00 | 0.00 | 0.00 | 60 | 1014.5 |
| 20260508005518 | 52 | 178 | 1.0 | 2.0 | 0.00 | 0.00 | 0.00 | 60 | 1014.6 |
| 20260508005019 | 52 | 178 | 1.0 | 2.0 | 0.00 | 0.00 | 0.00 | 58 | 1014.5 |
| 20260508004535 | 53 | 0 | 0.0 | 2.0 | 0.00 | 0.00 | 0.00 | 57 | 1014.5 |
| 20260508004019 | 54 | 196 | 0.0 | 2.0 | 0.00 | 0.00 | 0.00 | 55 | 1014.5 |
| 20260508003521 | 54 | 0 | 0.0 | 2.0 | 0.00 | 0.00 | 0.00 | 53 | 1014.4 |
| 20260508003033 | 55 | 178 | 0.0 | 2.0 | 0.00 | 0.00 | 0.00 | 52 | 1014.4 |
| 20260508002519 | 55 | 178 | 0.0 | 2.0 | 0.00 | 0.00 | 0.00 | 50 | 1014.3 |
| 20260508002020 | 56 | 0 | 0.0 | 2.0 | 0.00 | 0.00 | 0.00 | 48 | 1014.2 |
| 20260508001541 | 56 | 0 | 0.0 | 3.0 | 0.00 | 0.00 | 0.00 | 46 | 1014.2 |
| 20260508001019 | 56 | 153 | 1.0 | 3.0 | 0.00 | 0.00 | 0.00 | 46 | 1014.2 |
| 20260508000518 | 56 | 0 | 0.0 | 5.0 | 0.00 | 0.00 | 0.00 | 44 | 1014.2 |
| 20260508000035 | 56 | 250 | 1.0 | 7.0 | 0.00 | 0.00 | 0.00 | 43 | 1014.2 |
| 20260507235519 | 57 | 242 | 3.0 | 8.0 | 0.00 | 0.00 | 0.00 | 43 | 1014.3 |
| 20260507235020 | 57 | 239 | 3.0 | 8.0 | 0.00 | 0.00 | 0.00 | 44 | 1014.2 |
| 20260507234540 | 58 | 212 | 3.0 | 7.0 | 0.00 | 0.00 | 0.00 | 42 | 1014.1 |
| 20260507234018 | 58 | 253 | 1.0 | 8.0 | 0.00 | 0.00 | 0.00 | 41 | 1014.2 |
| 20260507233519 | 59 | 251 | 2.0 | 8.0 | 0.00 | 0.00 | 0.00 | 41 | 1014.2 |
| 20260507233036 | 59 | 301 | 2.0 | 8.0 | 0.00 | 0.00 | 0.00 | 41 | 1014.2 |
| 20260507232518 | 60 | 325 | 1.0 | 7.0 | 0.00 | 0.00 | 0.00 | 38 | 1014.1 |
| 20260507232022 | 60 | 120 | 2.0 | 7.0 | 0.00 | 0.00 | 0.00 | 39 | 1014.1 |
| 20260507231544 | 60 | 239 | 2.0 | 8.0 | 0.00 | 0.00 | 0.00 | 40 | 1014.0 |
| 20260507231018 | 61 | 22 | 1.0 | 8.0 | 0.00 | 0.00 | 0.00 | 39 | 1014.0 |
| 20260507230521 | 61 | 244 | 3.0 | 7.0 | 0.00 | 0.00 | 0.00 | 38 | 1014.0 |
| 20260507230039 | 61 | 309 | 1.0 | 5.0 | 0.00 | 0.00 | 0.00 | 38 | 1014.1 |
| 20260507225520 | 61 | 189 | 1.0 | 5.0 | 0.00 | 0.00 | 0.00 | 38 | 1014.1 |
| 20260507225019 | 61 | 300 | 1.0 | 5.0 | 0.00 | 0.00 | 0.00 | 40 | 1014.0 |
| 20260507224551 | 61 | 228 | 1.0 | 5.0 | 0.00 | 0.00 | 0.00 | 40 | 1014.0 |
| 20260507224019 | 60 | 0 | 0.0 | 4.0 | 0.00 | 0.00 | 0.00 | 39 | 1014.0 |
| 20260507223519 | 60 | 0 | 1.0 | 6.0 | 0.00 | 0.00 | 0.00 | 41 | 1013.9 |
| 20260507223043 | 60 | 252 | 1.0 | 7.0 | 0.00 | 0.00 | 0.00 | 41 | 1014.1 |
| 20260507222519 | 60 | 21 | 3.0 | 7.0 | 0.00 | 0.00 | 0.00 | 42 | 1014.1 |
| 20260507222018 | 60 | 34 | 1.0 | 7.0 | 0.00 | 0.00 | 0.00 | 40 | 1014.2 |
| 20260507221539 | 60 | 51 | 2.0 | 7.0 | 0.00 | 0.00 | 0.00 | 40 | 1014.3 |
| 20260507221019 | 61 | 221 | 1.0 | 4.0 | 0.00 | 0.00 | 0.00 | 41 | 1014.4 |
| 20260507220519 | 61 | 319 | 1.0 | 6.0 | 0.00 | 0.00 | 0.00 | 39 | 1014.3 |
| 20260507220038 | 62 | 282 | 2.0 | 6.0 | 0.00 | 0.00 | 0.00 | 40 | 1014.4 |
| 20260507215520 | 62 | 214 | 1.0 | 11.0 | 0.00 | 0.00 | 0.00 | 41 | 1014.4 |
| 20260507215020 | 62 | 288 | 1.0 | 12.0 | 0.00 | 0.00 | 0.00 | 38 | 1014.4 |
| 20260507214539 | 62 | 309 | 4.0 | 12.0 | 0.00 | 0.00 | 0.00 | 40 | 1014.5 |
| 20260507214019 | 62 | 241 | 3.0 | 13.0 | 0.00 | 0.00 | 0.00 | 38 | 1014.4 |
| 20260507213519 | 62 | 34 | 4.0 | 13.0 | 0.00 | 0.00 | 0.00 | 40 | 1014.4 |
| 20260507213047 | 62 | 294 | 2.0 | 12.0 | 0.00 | 0.00 | 0.00 | 39 | 1014.4 |
| 20260507212521 | 62 | 28 | 5.0 | 12.0 | 0.00 | 0.00 | 0.00 | 39 | 1014.4 |
| 20260507212019 | 62 | 325 | 2.0 | 10.0 | 0.00 | 0.00 | 0.00 | 38 | 1014.5 |
| 20260507211537 | 61 | 275 | 4.0 | 10.0 | 0.00 | 0.00 | 0.00 | 41 | 1014.5 |
| 20260507211018 | 61 | 9 | 1.0 | 9.0 | 0.00 | 0.00 | 0.00 | 40 | 1014.5 |
| 20260507210520 | 61 | 26 | 3.0 | 9.0 | 0.00 | 0.00 | 0.00 | 38 | 1014.3 |
| 20260507210104 | 62 | 296 | 2.0 | 8.0 | 0.00 | 0.00 | 0.00 | 38 | 1014.3 |